Time;durP1;ratioP1;P1;durP2;ratioP2;P2;SDS_P1;SDS_P2;PMS_P1;PMS_P2;Temp;Humidity;BMP_temperature;BMP_pressure;BME280_temperature;BME280_humidity;BME280_pressure;Samples;Min_cycle;Max_cycle;Signal;HPM_P1;HPM_P2
2021/08/27 00:02:12;;;;;;;;;;;;;;;13.11;84.68;99040.09;1735821;82;21038;-63
2021/08/27 00:04:38;;;;;;;7.83;2.50;;;;;;;13.07;84.89;99049.42;1730392;82;20160;-64
2021/08/27 00:07:05;;;;;;;7.58;2.67;;;;;;;12.97;85.15;99051.78;1732140;82;21000;-63
2021/08/27 00:09:32;;;;;;;27.60;2.67;;;;;;;12.95;85.35;99054.57;1713360;82;21016;-63
2021/08/27 00:11:58;;;;;;;1.72;1.50;;;;;;;13.01;85.47;99059.37;1741881;82;21629;-63
2021/08/27 00:14:26;;;;;;;5.05;2.02;;;;;;;13.03;85.38;99063.44;1737726;82;21047;-64
2021/08/27 00:16:53;;;;;;;4.33;2.15;;;;;;;12.96;85.20;99064.40;1720449;82;21521;-64
2021/08/27 00:19:20;;;;;;;11.68;2.80;;;;;;;12.89;85.32;99062.63;1744931;82;21000;-63
2021/08/27 00:21:46;;;;;;;10.53;2.47;;;;;;;12.84;85.46;99066.80;1743456;82;21597;-63
2021/08/27 00:24:12;;;;;;;;;;;;;;;12.81;85.56;99066.05;1737348;82;21022;-63
2021/08/27 00:26:38;;;;;;;7.30;2.42;;;;;;;12.78;85.76;99063.37;1733850;82;20142;-64
2021/08/27 00:29:05;;;;;;;26.27;2.70;;;;;;;12.73;86.08;99060.73;1744211;82;21036;-63
2021/08/27 00:31:31;;;;;;;;;;;;;;;12.80;86.19;99063.87;1746921;82;21023;-63
2021/08/27 00:33:58;;;;;;;5.28;2.85;;;;;;;12.87;86.26;99067.56;1729223;81;20090;-63
2021/08/27 00:36:24;;;;;;;12.23;3.02;;;;;;;12.88;86.45;99064.55;1718530;82;21042;-63
2021/08/27 00:38:52;;;;;;;5.47;1.60;;;;;;;12.97;86.52;99068.72;1718390;82;21593;-63
2021/08/27 00:41:19;;;;;;;11.90;3.05;;;;;;;13.04;86.40;99064.25;1728196;82;21018;-63
2021/08/27 00:43:46;;;;;;;6.83;2.17;;;;;;;13.01;86.15;99062.91;1719331;81;21109;-64
2021/08/27 00:46:12;;;;;;;40.88;3.10;;;;;;;12.97;86.24;99065.99;1737304;81;21900;-65
2021/08/27 00:48:39;;;;;;;13.45;2.00;;;;;;;12.95;86.35;99077.80;1705013;83;21063;-63
2021/08/27 00:51:06;;;;;;;8.68;2.05;;;;;;;12.97;86.54;99069.54;1722954;82;21035;-63
2021/08/27 00:53:35;;;;;;;;;;;;;;;13.05;86.59;99073.48;1747337;82;20999;-63
2021/08/27 00:56:02;;;;;;;10.08;1.72;;;;;;;13.11;86.50;99070.15;1711588;83;20117;-63
2021/08/27 00:58:29;;;;;;;2.17;1.77;;;;;;;13.07;86.53;99063.64;1737487;82;21537;-63
2021/08/27 01:00:56;;;;;;;12.23;1.85;;;;;;;13.06;86.41;99066.11;1740507;82;21035;-64
2021/08/27 01:03:23;;;;;;;6.47;1.72;;;;;;;13.07;86.38;99072.65;1747249;82;20984;-64
2021/08/27 01:06:30;;;;;;;6.15;1.92;;;;;;;13.08;86.31;99076.98;1745301;82;21086;-63
2021/08/27 01:09:15;;;;;;;5.83;1.57;;;;;;;13.12;86.28;99079.94;1729476;82;21083;-63
2021/08/27 01:11:57;;;;;;;2.47;1.70;;;;;;;13.14;86.23;99077.18;1681093;83;21066;-63
2021/08/27 01:14:37;;;;;;;4.42;1.55;;;;;;;13.18;86.22;99074.06;1731176;81;21640;-65
2021/08/27 01:17:16;;;;;;;5.35;1.87;;;;;;;13.24;86.12;99073.42;1722181;81;21042;-64
2021/08/27 01:20:03;;;;;;;6.05;1.60;;;;;;;13.25;85.97;99070.36;1717180;81;21023;-64
2021/08/27 01:23:02;;;;;;;14.50;2.00;;;;;;;13.27;85.87;99068.70;1755549;81;20959;-64
2021/08/27 01:25:30;;;;;;;2.55;1.85;;;;;;;13.24;85.69;99077.52;1735822;81;21066;-64
2021/08/27 01:27:57;;;;;;;2.27;1.67;;;;;;;13.21;85.59;99072.12;1751020;81;20940;-64
2021/08/27 01:30:49;;;;;;;6.10;1.67;;;;;;;13.19;85.62;99067.49;1758327;81;21511;-63
2021/08/27 01:33:17;;;;;;;5.03;1.37;;;;;;;13.21;85.60;99068.02;1760862;81;20924;-63
2021/08/27 01:35:48;;;;;;;7.33;1.42;;;;;;;13.23;85.53;99073.97;1759529;81;21031;-64
2021/08/27 01:38:15;;;;;;;3.55;1.10;;;;;;;13.23;85.37;99075.89;1760523;81;20982;-63
2021/08/27 01:40:45;;;;;;;6.12;1.30;;;;;;;13.19;85.18;99075.70;1756497;81;21110;-64
2021/08/27 01:43:11;;;;;;;5.97;1.40;;;;;;;13.08;84.86;99066.59;1730850;83;20963;-63
2021/08/27 01:45:38;;;;;;;;;;;;;;;12.91;84.88;99063.93;1731286;80;21070;-64
2021/08/27 01:48:05;;;;;;;13.88;1.27;;;;;;;12.85;85.04;99064.34;1727928;81;20490;-65
2021/08/27 01:50:34;;;;;;;3.92;1.70;;;;;;;12.71;85.32;99051.23;1735354;81;21125;-64
2021/08/27 01:53:01;;;;;;;2.95;1.10;;;;;;;12.68;85.50;99045.01;1750437;81;21011;-63
2021/08/27 01:55:27;;;;;;;4.70;1.00;;;;;;;12.66;85.60;99046.66;1756161;81;21419;-63
2021/08/27 01:57:55;;;;;;;2.85;0.88;;;;;;;12.58;85.49;99037.80;1755270;81;21438;-64
2021/08/27 02:00:22;;;;;;;13.08;1.20;;;;;;;12.50;85.61;99041.80;1732243;81;21097;-64
2021/08/27 02:02:48;;;;;;;3.80;1.07;;;;;;;12.43;85.76;99034.78;1731229;81;20983;-64
2021/08/27 02:05:15;;;;;;;5.45;1.00;;;;;;;12.42;85.90;99050.11;1733936;81;21600;-64
2021/08/27 02:07:41;;;;;;;9.50;1.07;;;;;;;12.44;86.03;99056.07;1733135;81;21027;-64
2021/08/27 02:10:08;;;;;;;;;;;;;;;12.53;86.15;99060.30;1759594;81;21051;-64
2021/08/27 02:12:34;;;;;;;1.47;0.90;;;;;;;12.57;86.10;99063.50;1752871;82;20134;-64
2021/08/27 02:15:01;;;;;;;4.30;1.00;;;;;;;12.50;86.06;99067.73;1740347;82;21078;-64
2021/08/27 02:17:29;;;;;;;4.37;1.07;;;;;;;12.37;85.96;99063.29;1735719;82;21898;-64
2021/08/27 02:19:58;;;;;;;3.77;1.07;;;;;;;12.35;86.14;99069.61;1752858;82;21118;-64
2021/08/27 02:22:28;;;;;;;2.25;1.00;;;;;;;12.35;86.12;99078.35;1752531;82;21616;-63
2021/08/27 02:25:13;;;;;;;7.05;1.07;;;;;;;12.31;86.17;99086.33;1740056;82;21566;-64
2021/08/27 02:27:40;;;;;;;6.33;1.10;;;;;;;12.29;86.21;99081.70;1731035;82;20991;-64
2021/08/27 02:30:08;;;;;;;7.50;1.10;;;;;;;12.30;86.32;99079.79;1734995;82;21464;-64
2021/08/27 02:32:34;;;;;;;11.70;1.30;;;;;;;12.30;86.26;99082.52;1724645;82;21027;-63
2021/08/27 02:35:02;;;;;;;22.87;1.40;;;;;;;12.29;86.18;99081.70;1734662;82;21494;-63
2021/08/27 02:37:32;;;;;;;8.13;1.20;;;;;;;12.25;86.14;99079.34;1751253;82;21003;-64
2021/08/27 02:39:58;;;;;;;3.98;1.22;;;;;;;12.26;86.27;99094.59;1735411;82;21042;-64
2021/08/27 02:42:31;;;;;;;1.62;1.20;;;;;;;12.29;86.31;99102.17;1723531;83;21062;-64
2021/08/27 02:44:59;;;;;;;6.90;1.00;;;;;;;12.28;86.26;99097.84;1735889;82;21612;-64
2021/08/27 02:47:25;;;;;;;2.85;1.00;;;;;;;12.32;86.42;99102.16;1741434;82;21593;-64
2021/08/27 02:49:53;;;;;;;7.65;1.40;;;;;;;12.33;86.27;99096.93;1746937;82;21039;-64
2021/08/27 02:52:31;;;;;;;7.10;1.60;;;;;;;12.25;86.19;99110.72;1710923;83;21102;-64
2021/08/27 02:55:15;;;;;;;5.35;1.30;;;;;;;12.26;86.49;99119.70;1743327;82;21082;-63
2021/08/27 02:58:07;;;;;;;4.45;1.52;;;;;;;12.31;86.66;99119.63;1749872;82;21003;-64
2021/08/27 03:00:38;;;;;;;5.00;1.67;;;;;;;12.26;86.52;99132.79;1736291;82;21074;-64
2021/08/27 03:03:05;;;;;;;2.12;1.25;;;;;;;12.24;86.68;99130.11;1735833;82;20979;-64
2021/08/27 03:05:38;;;;;;;5.60;1.67;;;;;;;12.23;86.73;99138.84;1750049;82;21097;-64
2021/08/27 03:08:07;;;;;;;9.20;1.80;;;;;;;12.22;86.86;99133.13;1723162;83;21071;-64
2021/08/27 03:10:48;;;;;;;6.30;2.30;;;;;;;12.26;87.02;99134.16;1721201;83;21052;-64
2021/08/27 03:13:27;;;;;;;24.12;2.60;;;;;;;12.31;87.10;99142.83;1713111;82;21031;-64
2021/08/27 03:16:01;;;;;;;12.03;2.17;;;;;;;12.39;87.24;99130.69;1699548;82;21000;-64
2021/08/27 03:18:39;;;;;;;9.68;2.37;;;;;;;12.47;87.25;99135.99;1726369;82;21023;-63
2021/08/27 03:21:28;;;;;;;8.05;2.30;;;;;;;12.53;87.31;99137.55;1737772;82;21059;-64
2021/08/27 03:24:01;;;;;;;7.65;2.05;;;;;;;12.58;87.27;99134.72;1721568;82;21075;-63
2021/08/27 03:26:29;;;;;;;24.25;2.62;;;;;;;12.66;87.33;99145.52;1723568;82;21020;-65
2021/08/27 03:29:01;;;;;;;2.42;1.85;;;;;;;12.73;87.32;99145.94;1737827;82;21062;-65
2021/08/27 03:31:27;;;;;;;4.25;2.05;;;;;;;12.78;87.25;99149.41;1703663;82;21030;-65
2021/08/27 03:33:55;;;;;;;10.05;2.58;;;;;;;12.82;87.20;99144.94;1709826;83;21083;-66
2021/08/27 03:36:28;;;;;;;11.80;2.20;;;;;;;12.84;87.13;99152.84;1731348;82;21023;-67
2021/08/27 03:38:56;;;;;;;10.03;1.87;;;;;;;12.86;87.19;99151.98;1733228;82;21106;-66
2021/08/27 03:41:26;;;;;;;4.95;2.10;;;;;;;12.91;87.21;99151.34;1715133;82;21000;-67
2021/08/27 03:43:53;;;;;;;4.95;2.20;;;;;;;12.97;87.18;99155.59;1729046;82;21035;-65
2021/08/27 03:46:20;;;;;;;7.58;2.35;;;;;;;13.01;87.07;99157.17;1726540;82;21012;-65
2021/08/27 03:48:47;;;;;;;;;;;;;;;13.07;87.08;99166.10;1740815;82;21024;-65
2021/08/27 03:51:14;;;;;;;3.55;1.90;;;;;;;13.10;86.92;99163.61;1712498;83;20106;-64
2021/08/27 03:53:40;;;;;;;2.08;1.70;;;;;;;13.09;87.09;99163.86;1715795;82;21027;-65
2021/08/27 03:56:08;;;;;;;6.30;2.17;;;;;;;13.10;87.03;99165.52;1709929;84;21091;-65
2021/08/27 03:58:35;;;;;;;3.72;2.35;;;;;;;13.09;86.98;99155.67;1734668;82;21008;-65
2021/08/27 04:01:01;;;;;;;9.83;1.98;;;;;;;13.12;87.02;99156.45;1736168;82;21510;-65
2021/08/27 04:03:28;;;;;;;3.52;2.00;;;;;;;13.12;86.99;99152.36;1738759;82;21007;-65
2021/08/27 04:06:01;;;;;;;9.73;2.00;;;;;;;13.16;87.11;99150.09;1716304;82;21055;-65
2021/08/27 04:08:28;;;;;;;11.73;2.10;;;;;;;13.23;87.13;99139.57;1735033;82;20953;-65
2021/08/27 04:10:54;;;;;;;8.18;2.08;;;;;;;13.29;87.05;99145.73;1738087;81;21467;-64
2021/08/27 04:13:21;;;;;;;;;;;;;;;13.36;87.14;99140.12;1735977;82;21047;-66
2021/08/27 04:15:47;;;;;;;3.92;1.80;;;;;;;13.48;87.16;99144.27;1720045;82;20449;-65
2021/08/27 04:18:13;;;;;;;4.55;1.90;;;;;;;13.51;87.34;99145.84;1716533;82;21023;-65
2021/08/27 04:20:40;;;;;;;14.30;2.10;;;;;;;13.55;87.19;99148.22;1709925;82;21542;-65
2021/08/27 04:23:06;;;;;;;;;;;;;;;13.52;87.03;99151.56;1713307;82;21079;-64
2021/08/27 04:25:32;;;;;;;3.08;2.22;;;;;;;13.57;87.20;99151.44;1738221;81;20409;-65
2021/08/27 04:27:59;;;;;;;4.03;2.12;;;;;;;13.56;87.34;99148.48;1737782;82;21526;-63
2021/08/27 04:30:25;;;;;;;5.00;1.90;;;;;;;13.63;87.44;99150.80;1727245;82;21059;-64
2021/08/27 04:32:51;;;;;;;;;;;;;;;13.71;87.38;99159.08;1713367;82;21035;-63
2021/08/27 04:35:18;;;;;;;3.15;1.98;;;;;;;13.73;87.23;99154.13;1710258;82;20105;-63
2021/08/27 04:37:44;;;;;;;;;;;;;;;13.71;87.34;99156.92;1733473;82;21051;-63
2021/08/27 04:40:11;;;;;;;11.33;2.45;;;;;;;13.74;87.34;99162.59;1719506;82;20161;-63
2021/08/27 04:42:38;;;;;;;12.65;2.58;;;;;;;13.67;87.29;99162.20;1714190;82;21046;-64
2021/08/27 04:45:06;;;;;;;3.90;2.25;;;;;;;13.65;87.19;99164.96;1738540;82;21064;-63
2021/08/27 04:47:33;;;;;;;12.73;2.87;;;;;;;13.59;86.92;99160.72;1735956;82;20956;-63
2021/08/27 04:49:59;;;;;;;;;;;;;;;13.49;86.85;99165.04;1726702;82;21039;-65
2021/08/27 04:52:25;;;;;;;6.15;2.92;;;;;;;13.44;87.03;99156.38;1726641;81;20091;-65
2021/08/27 04:54:53;;;;;;;3.50;2.87;;;;;;;13.42;87.43;99159.42;1737183;82;21042;-65
2021/08/27 04:57:20;;;;;;;14.03;3.55;;;;;;;13.49;87.51;99162.30;1726166;82;20959;-64
2021/08/27 04:59:46;;;;;;;3.25;2.80;;;;;;;13.53;87.61;99158.66;1722890;82;21027;-65
2021/08/27 05:02:13;;;;;;;5.22;3.60;;;;;;;13.61;87.68;99151.64;1716326;82;21054;-67
2021/08/27 05:04:39;;;;;;;4.90;3.90;;;;;;;13.59;87.51;99151.16;1725483;82;21665;-68
2021/08/27 05:07:06;;;;;;;6.03;3.58;;;;;;;13.57;87.56;99147.92;1715729;82;21054;-68
2021/08/27 05:09:32;;;;;;;8.15;4.15;;;;;;;13.52;87.51;99144.73;1711511;82;21534;-68
2021/08/27 05:11:59;;;;;;;6.17;4.17;;;;;;;13.51;87.65;99146.39;1711867;81;21030;-66
2021/08/27 05:14:25;;;;;;;;;;;;;;;13.59;87.91;99148.41;1754519;81;21030;-67
2021/08/27 05:16:53;;;;;;;8.53;4.05;;;;;;;13.70;88.06;99156.11;1743046;81;20113;-66
2021/08/27 05:19:20;;;;;;;13.68;4.30;;;;;;;13.75;88.27;99157.34;1742822;81;21133;-64
2021/08/27 05:21:47;;;;;;;8.80;3.83;;;;;;;13.91;88.44;99150.45;1756939;81;21565;-65
2021/08/27 05:24:13;;;;;;;8.65;2.95;;;;;;;14.06;88.37;99156.70;1752990;81;21034;-64
2021/08/27 05:26:39;;;;;;;19.23;4.90;;;;;;;14.19;88.27;99146.25;1757956;81;21536;-64
2021/08/27 05:29:05;;;;;;;;;;;;;;;14.24;87.97;99144.78;1753264;81;21070;-65
2021/08/27 05:31:32;;;;;;;9.35;4.35;;;;;;;14.29;87.93;99146.83;1755573;81;20106;-64
2021/08/27 05:33:59;;;;;;;8.30;4.55;;;;;;;14.32;88.09;99148.94;1758744;81;21105;-65
2021/08/27 05:36:27;;;;;;;8.75;4.62;;;;;;;14.43;88.08;99158.56;1761191;81;21071;-64
2021/08/27 05:38:53;;;;;;;16.17;4.87;;;;;;;14.48;87.75;99146.69;1741132;81;21533;-65
2021/08/27 05:41:20;;;;;;;8.50;4.67;;;;;;;14.52;87.60;99147.69;1760101;81;21034;-65
2021/08/27 05:43:46;;;;;;;7.10;3.95;;;;;;;14.61;87.57;99152.65;1750309;81;21071;-65
2021/08/27 05:46:13;;;;;;;6.53;4.58;;;;;;;14.74;87.62;99153.13;1730510;83;21050;-65
2021/08/27 05:48:39;;;;;;;;;;;;;;;14.90;87.64;99151.62;1753254;81;21280;-66
2021/08/27 05:51:05;;;;;;;5.37;4.10;;;;;;;15.01;87.25;99161.77;1746167;81;20133;-66
2021/08/27 05:53:32;;;;;;;;;;;;;;;14.99;87.18;99154.40;1747507;81;21155;-65
2021/08/27 05:55:58;;;;;;;5.97;4.33;;;;;;;15.06;86.95;99158.87;1747051;81;20102;-66
2021/08/27 05:58:25;;;;;;;5.83;4.33;;;;;;;15.03;86.73;99159.50;1756833;81;21324;-65
2021/08/27 06:00:51;;;;;;;4.70;3.87;;;;;;;15.10;86.74;99153.56;1748951;81;21021;-65
2021/08/27 06:03:17;;;;;;;;;;;;;;;15.32;86.98;99153.51;1737373;81;21031;-65
2021/08/27 06:05:45;;;;;;;4.40;3.22;;;;;;;15.53;86.66;99159.26;1746538;81;20112;-65
2021/08/27 06:08:13;;;;;;;4.33;3.92;;;;;;;15.65;86.49;99158.09;1746051;81;21042;-65
2021/08/27 06:10:39;;;;;;;;;;;;;;;15.72;85.82;99153.76;1748329;81;21070;-65
2021/08/27 06:13:06;;;;;;;3.87;3.22;;;;;;;15.78;85.31;99159.89;1737361;81;20136;-65
2021/08/27 06:15:33;;;;;;;4.25;3.60;;;;;;;15.78;85.08;99166.75;1738980;82;21047;-65
2021/08/27 06:17:59;;;;;;;5.17;4.37;;;;;;;15.86;84.67;99170.09;1737045;82;21039;-65
2021/08/27 06:20:25;;;;;;;4.75;4.25;;;;;;;15.91;84.01;99169.92;1735838;82;21055;-65
2021/08/27 06:22:51;;;;;;;;;;;;;;;15.84;83.39;99164.91;1737572;82;21011;-65
2021/08/27 06:26:48;;;;;;;5.47;4.10;;;;;;;15.96;83.39;99164.84;1817040;79;22642;-65
2021/08/27 06:29:14;;;;;;;;;;;;;;;15.90;83.12;99172.44;1779272;80;21015;-66
2021/08/27 06:31:40;;;;;;;5.37;4.15;;;;;;;15.98;82.83;99175.74;1748357;81;20149;-66
2021/08/27 06:34:07;;;;;;;5.20;4.00;;;;;;;16.02;82.62;99175.35;1746092;81;21585;-66
2021/08/27 06:36:33;;;;;;;4.60;3.62;;;;;;;16.03;82.12;99183.03;1749731;81;21070;-67
2021/08/27 06:38:59;;;;;;;;;;;;;;;16.07;82.05;99180.70;1749885;81;21576;-66
2021/08/27 06:41:25;;;;;;;9.75;4.80;;;;;;;16.13;81.58;99179.41;1747084;81;20089;-66
2021/08/27 06:43:52;;;;;;;;;;;;;;;16.14;81.47;99182.97;1751703;81;21062;-66
2021/08/27 06:46:22;;;;;;;4.50;3.22;;;;;;;16.21;81.10;99173.69;1748768;81;20121;-65
2021/08/27 06:48:48;;;;;;;3.85;3.20;;;;;;;16.38;81.29;99182.73;1747013;81;21038;-65
2021/08/27 06:51:15;;;;;;;4.33;3.30;;;;;;;16.59;80.63;99178.80;1751359;81;21497;-66
2021/08/27 06:53:42;;;;;;;4.17;2.90;;;;;;;17.00;81.83;99182.95;1736785;81;20998;-67
2021/08/27 06:56:08;;;;;;;;;;;;;;;17.43;80.42;99187.16;1742160;79;20994;-67
2021/08/27 06:58:34;;;;;;;4.40;3.35;;;;;;;17.62;78.58;99180.47;1743179;81;20153;-65
2021/08/27 07:01:01;;;;;;;4.00;3.40;;;;;;;17.70;77.13;99174.12;1756271;81;20975;-66
2021/08/27 07:03:27;;;;;;;4.33;2.80;;;;;;;17.91;76.44;99177.73;1758928;81;21434;-66
2021/08/27 07:05:54;;;;;;;4.22;2.98;;;;;;;18.24;75.57;99180.03;1750331;81;20983;-66
2021/08/27 07:08:20;;;;;;;3.70;2.92;;;;;;;18.59;74.15;99190.23;1754380;81;21037;-66
2021/08/27 07:10:48;;;;;;;3.60;2.27;;;;;;;18.83;72.06;99180.67;1752710;81;21565;-65
2021/08/27 07:13:15;;;;;;;5.72;2.60;;;;;;;18.96;71.29;99184.27;1747752;81;20971;-66
2021/08/27 07:15:43;;;;;;;3.80;2.87;;;;;;;19.21;71.34;99185.13;1700802;83;21047;-65
2021/08/27 07:18:09;;;;;;;3.72;3.00;;;;;;;19.57;70.19;99183.84;1711428;83;20967;-65
2021/08/27 07:20:35;;;;;;;3.55;2.33;;;;;;;19.85;68.76;99182.56;1704453;83;21019;-65
2021/08/27 07:23:03;;;;;;;4.15;2.85;;;;;;;20.16;68.02;99180.56;1717166;83;21497;-65
2021/08/27 07:25:29;;;;;;;2.72;2.17;;;;;;;20.28;65.77;99180.58;1720666;83;21138;-65
2021/08/27 07:27:56;;;;;;;5.00;3.27;;;;;;;20.35;64.44;99176.65;1709821;83;21533;-66
2021/08/27 07:30:22;;;;;;;8.35;5.28;;;;;;;20.26;64.27;99178.73;1720918;83;21035;-66
2021/08/27 07:32:48;;;;;;;3.67;2.83;;;;;;;20.34;64.79;99188.28;1703884;83;21035;-66
2021/08/27 07:35:15;;;;;;;11.33;4.10;;;;;;;20.77;66.15;99186.18;1686971;84;21059;-66
2021/08/27 07:37:41;;;;;;;3.40;2.30;;;;;;;21.31;64.25;99187.89;1697803;84;21536;-65
2021/08/27 07:40:12;;;;;;;2.67;1.70;;;;;;;21.58;61.52;99187.57;1688997;84;21075;-66
2021/08/27 07:42:38;;;;;;;4.80;1.90;;;;;;;21.63;61.56;99191.47;1689746;84;21014;-63
2021/08/27 07:45:05;;;;;;;2.95;1.82;;;;;;;21.81;61.38;99201.60;1719362;83;21086;-65
2021/08/27 07:47:32;;;;;;;2.52;1.77;;;;;;;21.89;59.85;99202.58;1712853;83;20980;-66
2021/08/27 07:49:59;;;;;;;3.00;1.67;;;;;;;21.70;59.15;99201.34;1723631;83;21054;-64
2021/08/27 07:52:26;;;;;;;3.67;1.85;;;;;;;21.52;58.72;99206.20;1716039;83;21481;-65
2021/08/27 07:54:54;;;;;;;3.30;2.17;;;;;;;21.42;59.10;99200.63;1719609;83;21052;-64
2021/08/27 07:57:21;;;;;;;3.25;2.15;;;;;;;21.88;58.99;99199.58;1707549;83;21010;-65
2021/08/27 07:59:48;;;;;;;3.70;1.92;;;;;;;21.88;58.99;99199.58;1708084;83;21082;-65
2021/08/27 08:02:16;;;;;;;4.45;1.80;;;;;;;22.04;59.23;99200.37;1708829;82;20998;-65
2021/08/27 08:04:44;;;;;;;2.85;1.90;;;;;;;22.39;58.65;99195.63;1710691;83;21038;-66
2021/08/27 08:07:12;;;;;;;2.55;1.75;;;;;;;22.89;57.93;99205.03;1718202;83;21579;-66
2021/08/27 08:09:41;;;;;;;2.60;2.00;;;;;;;23.45;57.28;99210.91;1719736;83;21455;-65
2021/08/27 08:12:10;;;;;;;3.58;1.77;;;;;;;23.80;54.01;99208.73;1715722;83;21537;-66
2021/08/27 08:14:37;;;;;;;2.98;2.27;;;;;;;23.56;53.87;99209.13;1677048;83;21034;-66
2021/08/27 08:17:06;;;;;;;3.72;2.02;;;;;;;23.23;53.12;99204.94;1708660;83;21037;-65
2021/08/27 08:19:34;;;;;;;3.42;2.37;;;;;;;23.09;53.16;99206.05;1702313;83;21074;-65
2021/08/27 08:22:02;;;;;;;2.75;1.75;;;;;;;22.79;52.48;99209.20;1679563;84;21469;-66
2021/08/27 08:24:30;;;;;;;2.72;1.80;;;;;;;22.43;53.56;99206.80;1687665;84;21091;-66
2021/08/27 08:26:56;;;;;;;2.58;2.00;;;;;;;22.27;54.14;99209.64;1650109;84;21040;-67
2021/08/27 08:29:24;;;;;;;3.65;1.98;;;;;;;22.16;53.65;99208.59;1657997;86;21058;-67
2021/08/27 08:31:52;;;;;;;2.58;1.72;;;;;;;22.33;53.81;99210.38;1672023;86;21026;-65
2021/08/27 08:34:19;;;;;;;3.65;2.00;;;;;;;22.73;54.30;99211.48;1669957;86;21046;-65
2021/08/27 08:36:45;;;;;;;3.15;2.00;;;;;;;22.83;53.22;99207.30;1674249;85;21446;-65
2021/08/27 08:39:12;;;;;;;5.40;2.50;;;;;;;22.87;52.64;99209.58;1686759;84;21019;-65
2021/08/27 08:41:39;;;;;;;3.30;2.15;;;;;;;22.97;51.12;99213.72;1676258;84;21078;-65
2021/08/27 08:44:06;;;;;;;3.08;1.72;;;;;;;23.08;51.58;99200.28;1681843;84;21039;-65
2021/08/27 08:46:33;;;;;;;3.00;2.00;;;;;;;23.39;52.09;99204.81;1671312;85;21124;-65
2021/08/27 08:49:01;;;;;;;3.37;2.27;;;;;;;23.63;50.44;99207.25;1656581;86;21051;-62
2021/08/27 08:51:28;;;;;;;2.95;1.98;;;;;;;23.49;49.42;99213.95;1677814;85;21079;-64
2021/08/27 08:53:56;;;;;;;4.28;1.87;;;;;;;22.84;49.65;99213.09;1675542;85;21040;-65
2021/08/27 08:56:25;;;;;;;8.08;4.87;;;;;;;22.29;51.51;99219.20;1668464;85;21590;-64
2021/08/27 08:58:52;;;;;;;4.33;2.50;;;;;;;22.25;53.03;99216.92;1664849;84;21614;-65
2021/08/27 09:01:19;;;;;;;3.95;2.67;;;;;;;22.29;53.32;99215.04;1678236;84;21545;-66
2021/08/27 09:03:47;;;;;;;4.05;2.52;;;;;;;22.39;53.75;99217.82;1669707;85;21189;-65
2021/08/27 09:06:13;;;;;;;3.87;2.30;;;;;;;22.44;53.10;99212.58;1645642;86;21119;-65
2021/08/27 09:08:45;;;;;;;3.15;2.25;;;;;;;22.55;52.81;99218.59;1677000;83;21080;-64
2021/08/27 09:11:21;;;;;;;4.22;2.08;;;;;;;22.53;51.79;99214.58;1685712;85;21008;-65
2021/08/27 09:13:53;;;;;;;3.92;2.45;;;;;;;22.64;51.40;99214.20;1668054;86;21055;-65
2021/08/27 09:16:23;;;;;;;3.60;2.50;;;;;;;22.89;52.10;99216.94;1659352;86;21022;-65
2021/08/27 09:18:50;;;;;;;3.30;2.30;;;;;;;23.13;52.40;99215.23;1671392;85;21095;-65
2021/08/27 09:21:34;;;;;;;2.72;2.10;;;;;;;23.34;51.14;99217.63;1675673;84;21052;-64
2021/08/27 09:24:21;;;;;;;3.95;2.47;;;;;;;23.44;49.04;99223.19;1677431;85;21066;-64
2021/08/27 09:26:51;;;;;;;3.35;2.40;;;;;;;23.15;47.92;99219.84;1670593;84;21488;-64
2021/08/27 09:29:43;;;;;;;3.77;2.47;;;;;;;22.56;48.44;99218.01;1694779;84;21048;-63
2021/08/27 09:32:28;;;;;;;3.33;2.40;;;;;;;21.99;49.79;99225.03;1687080;84;21012;-64
2021/08/27 09:35:20;;;;;;;3.80;2.58;;;;;;;21.57;51.33;99228.91;1684600;84;21118;-64
2021/08/27 09:37:53;;;;;;;3.60;2.30;;;;;;;21.38;52.01;99225.22;1689287;84;20940;-64
2021/08/27 09:40:26;;;;;;;4.87;2.42;;;;;;;21.38;52.42;99232.95;1698934;84;21099;-64
2021/08/27 09:42:52;;;;;;;5.83;2.70;;;;;;;21.55;52.99;99233.98;1691333;84;20968;-62
2021/08/27 09:45:41;;;;;;;4.05;2.55;;;;;;;21.60;53.64;99231.54;1691961;84;21704;-61
2021/08/27 09:48:12;;;;;;;4.72;2.25;;;;;;;21.54;54.29;99235.74;1685436;84;20976;-63
2021/08/27 09:50:47;;;;;;;3.22;2.47;;;;;;;21.58;54.12;99236.04;1726617;82;21054;-63
2021/08/27 09:53:14;;;;;;;4.03;2.60;;;;;;;21.76;53.28;99239.26;1747648;82;20968;-63
2021/08/27 09:55:58;;;;;;;4.35;2.77;;;;;;;21.96;54.05;99231.30;1749299;80;22034;-63
2021/08/27 09:58:26;;;;;;;6.15;2.52;;;;;;;22.18;52.92;99226.46;1735720;82;21529;-62
2021/08/27 10:01:05;;;;;;;3.02;2.40;;;;;;;22.28;51.31;99225.90;1749782;82;20987;-62
2021/08/27 10:03:32;;;;;;;3.22;2.47;;;;;;;22.30;51.71;99229.13;1741348;82;21011;-63
2021/08/27 10:06:02;;;;;;;3.27;2.40;;;;;;;22.30;51.25;99231.09;1749660;82;21094;-63
2021/08/27 10:08:28;;;;;;;4.97;2.58;;;;;;;22.19;50.73;99234.20;1720208;82;21047;-63
2021/08/27 10:10:58;;;;;;;3.92;2.90;;;;;;;22.14;51.14;99228.34;1720180;83;21094;-63
2021/08/27 10:13:25;;;;;;;4.20;2.33;;;;;;;21.98;51.67;99228.96;1743240;82;20992;-63
2021/08/27 10:15:52;;;;;;;3.27;2.42;;;;;;;21.86;51.68;99223.48;1720118;83;21030;-62
2021/08/27 10:18:19;;;;;;;3.67;2.60;;;;;;;21.86;51.94;99224.09;1745456;82;21443;-62
2021/08/27 10:20:46;;;;;;;3.40;2.62;;;;;;;21.97;51.21;99222.38;1749853;82;21542;-64
2021/08/27 10:23:17;;;;;;;3.72;2.70;;;;;;;21.93;49.84;99216.75;1747881;82;20991;-63
2021/08/27 10:25:44;;;;;;;3.42;2.52;;;;;;;22.01;50.46;99214.95;1723632;82;21019;-63
2021/08/27 10:28:10;;;;;;;3.87;2.40;;;;;;;22.19;50.85;99213.41;1732092;82;21003;-63
2021/08/27 10:30:52;;;;;;;4.08;2.47;;;;;;;22.41;49.63;99205.80;1749792;81;21031;-63
2021/08/27 10:33:38;;;;;;;3.55;2.30;;;;;;;22.62;48.60;99211.00;1750109;82;21023;-63
2021/08/27 10:36:10;;;;;;;3.67;2.47;;;;;;;22.73;48.14;99202.34;1750357;81;21518;-63
2021/08/27 10:38:46;;;;;;;3.95;2.77;;;;;;;22.81;49.22;99206.27;1724853;82;20998;-63
2021/08/27 10:41:28;;;;;;;4.30;2.50;;;;;;;22.97;47.93;99197.88;1722624;83;21545;-63
2021/08/27 10:44:07;;;;;;;3.55;2.70;;;;;;;23.06;46.29;99202.60;1724568;82;21007;-63
2021/08/27 10:46:52;;;;;;;3.85;2.62;;;;;;;23.06;46.35;99197.66;1752565;82;20991;-63
2021/08/27 10:49:45;;;;;;;4.15;2.60;;;;;;;22.99;47.66;99195.52;1752307;82;21574;-63
2021/08/27 10:52:33;;;;;;;4.30;2.55;;;;;;;22.95;48.03;99189.70;1752366;82;21520;-63
2021/08/27 10:55:06;;;;;;;4.47;2.90;;;;;;;23.00;45.32;99193.55;1752441;82;21565;-63
2021/08/27 10:57:47;;;;;;;3.05;2.50;;;;;;;22.93;44.22;99190.06;1749571;82;21038;-63
2021/08/27 11:00:35;;;;;;;3.55;2.60;;;;;;;22.88;45.75;99182.62;1747950;82;21102;-63
2021/08/27 11:03:01;;;;;;;3.77;2.40;;;;;;;22.92;46.85;99187.06;1748208;81;21093;-62
2021/08/27 11:05:41;;;;;;;4.78;2.83;;;;;;;23.01;47.39;99184.87;1720995;82;21058;-62
2021/08/27 11:08:16;;;;;;;4.60;2.58;;;;;;;23.07;45.63;99187.56;1730311;82;21066;-63
2021/08/27 11:11:09;;;;;;;4.20;2.95;;;;;;;23.08;44.78;99185.02;1752506;82;21540;-62
2021/08/27 11:13:38;;;;;;;4.00;2.55;;;;;;;23.04;45.19;99189.69;1745711;82;21509;-62
2021/08/27 11:16:23;;;;;;;4.42;2.90;;;;;;;23.02;44.20;99187.88;1750374;82;21004;-63
2021/08/27 11:18:52;;;;;;;3.95;2.60;;;;;;;22.86;44.15;99191.31;1752475;82;21063;-63
2021/08/27 11:21:37;;;;;;;4.25;2.90;;;;;;;22.68;43.74;99188.17;1743138;82;21422;-62
2021/08/27 11:24:23;;;;;;;3.67;2.72;;;;;;;22.51;44.09;99190.55;1747800;82;21051;-63
2021/08/27 11:27:08;;;;;;;3.98;2.47;;;;;;;22.42;45.36;99194.13;1741922;81;21420;-63
2021/08/27 11:29:40;;;;;;;4.78;2.90;;;;;;;22.50;44.52;99195.86;1684613;85;21027;-62
2021/08/27 11:32:31;;;;;;;4.40;2.60;;;;;;;22.53;43.70;99191.78;1697278;84;21014;-62
2021/08/27 11:35:04;;;;;;;4.35;2.98;;;;;;;22.46;43.89;99195.02;1694128;84;21574;-63
2021/08/27 11:37:37;;;;;;;4.22;2.90;;;;;;;22.37;45.02;99191.05;1667119;84;21566;-63
2021/08/27 11:40:07;;;;;;;4.03;2.98;;;;;;;22.50;44.75;99204.19;1677838;84;21059;-63
2021/08/27 11:42:35;;;;;;;4.78;2.80;;;;;;;22.65;43.40;99199.98;1670296;84;21077;-63
2021/08/27 11:45:11;;;;;;;4.40;3.10;;;;;;;22.80;43.48;99194.98;1668156;86;21130;-63
2021/08/27 11:47:47;;;;;;;4.08;2.90;;;;;;;22.92;43.74;99196.00;1670429;84;21066;-63
2021/08/27 11:50:38;;;;;;;3.97;2.63;;;;;;;23.01;43.30;99198.75;1670308;84;21078;-63
2021/08/27 11:53:05;;;;;;;3.70;2.77;;;;;;;22.93;42.15;99191.45;1668631;84;21041;-63
2021/08/27 11:55:31;;;;;;;4.37;2.87;;;;;;;22.84;42.25;99185.91;1670211;84;21102;-62